sensor_id;sensor_type;location;lat;lon;timestamp;P1;durP1;ratioP1;P2;durP2;ratioP2
1076;SDS011;64114;48.726;9.370;2022-10-16T00:01:06;2.93;;;2.33;;
1076;SDS011;64114;48.726;9.370;2022-10-16T00:03:36;5.20;;;2.87;;
1076;SDS011;64114;48.726;9.370;2022-10-16T00:06:05;2.70;;;2.50;;
1076;SDS011;64114;48.726;9.370;2022-10-16T00:08:33;4.43;;;2.80;;
1076;SDS011;64114;48.726;9.370;2022-10-16T00:11:02;4.30;;;2.80;;
1076;SDS011;64114;48.726;9.370;2022-10-16T00:13:32;3.00;;;2.53;;
1076;SDS011;64114;48.726;9.370;2022-10-16T00:16:01;6.60;;;2.80;;
1076;SDS011;64114;48.726;9.370;2022-10-16T00:18:29;7.60;;;2.57;;
1076;SDS011;64114;48.726;9.370;2022-10-16T00:21:02;3.50;;;2.63;;
1076;SDS011;64114;48.726;9.370;2022-10-16T00:23:31;3.13;;;2.70;;
1076;SDS011;64114;48.726;9.370;2022-10-16T00:26:02;3.00;;;2.63;;
1076;SDS011;64114;48.726;9.370;2022-10-16T00:28:32;2.67;;;2.47;;
1076;SDS011;64114;48.726;9.370;2022-10-16T00:31:02;2.70;;;2.50;;
1076;SDS011;64114;48.726;9.370;2022-10-16T00:33:31;5.43;;;1.90;;
1076;SDS011;64114;48.726;9.370;2022-10-16T00:35:59;2.47;;;2.30;;
1076;SDS011;64114;48.726;9.370;2022-10-16T00:38:28;6.07;;;2.93;;
1076;SDS011;64114;48.726;9.370;2022-10-16T00:40:56;3.80;;;2.40;;
1076;SDS011;64114;48.726;9.370;2022-10-16T00:43:35;10.97;;;4.20;;
1076;SDS011;64114;48.726;9.370;2022-10-16T00:46:07;2.60;;;2.23;;
1076;SDS011;64114;48.726;9.370;2022-10-16T00:48:40;2.80;;;2.47;;
1076;SDS011;64114;48.726;9.370;2022-10-16T00:51:10;2.00;;;1.90;;
1076;SDS011;64114;48.726;9.370;2022-10-16T00:53:40;2.17;;;2.03;;
1076;SDS011;64114;48.726;9.370;2022-10-16T00:56:08;5.70;;;2.03;;
1076;SDS011;64114;48.726;9.370;2022-10-16T00:58:36;3.03;;;2.83;;
1076;SDS011;64114;48.726;9.370;2022-10-16T01:01:04;2.67;;;1.70;;
1076;SDS011;64114;48.726;9.370;2022-10-16T01:03:33;2.50;;;1.97;;
1076;SDS011;64114;48.726;9.370;2022-10-16T01:06:07;3.10;;;2.40;;
1076;SDS011;64114;48.726;9.370;2022-10-16T01:08:50;1.97;;;1.90;;
1076;SDS011;64114;48.726;9.370;2022-10-16T01:11:27;4.23;;;1.63;;
1076;SDS011;64114;48.726;9.370;2022-10-16T01:14:01;3.20;;;2.40;;
1076;SDS011;64114;48.726;9.370;2022-10-16T01:16:37;3.23;;;2.20;;
1076;SDS011;64114;48.726;9.370;2022-10-16T01:19:12;3.07;;;2.10;;
1076;SDS011;64114;48.726;9.370;2022-10-16T01:21:44;5.40;;;2.40;;
1076;SDS011;64114;48.726;9.370;2022-10-16T01:24:21;2.77;;;2.10;;
1076;SDS011;64114;48.726;9.370;2022-10-16T01:27:02;1.93;;;1.80;;
1076;SDS011;64114;48.726;9.370;2022-10-16T01:29:34;3.50;;;1.83;;
1076;SDS011;64114;48.726;9.370;2022-10-16T01:32:09;4.43;;;1.97;;
1076;SDS011;64114;48.726;9.370;2022-10-16T01:34:42;2.23;;;1.73;;
1076;SDS011;64114;48.726;9.370;2022-10-16T01:37:15;2.30;;;1.90;;
1076;SDS011;64114;48.726;9.370;2022-10-16T01:39:49;2.40;;;1.40;;
1076;SDS011;64114;48.726;9.370;2022-10-16T01:42:23;3.20;;;1.63;;
1076;SDS011;64114;48.726;9.370;2022-10-16T01:44:56;1.83;;;1.73;;
1076;SDS011;64114;48.726;9.370;2022-10-16T01:47:27;2.63;;;1.83;;
1076;SDS011;64114;48.726;9.370;2022-10-16T01:49:59;1.80;;;1.37;;
1076;SDS011;64114;48.726;9.370;2022-10-16T01:52:31;1.87;;;1.27;;
1076;SDS011;64114;48.726;9.370;2022-10-16T01:55:03;1.80;;;1.60;;
1076;SDS011;64114;48.726;9.370;2022-10-16T01:57:35;1.70;;;1.60;;
1076;SDS011;64114;48.726;9.370;2022-10-16T02:00:07;2.07;;;1.90;;
1076;SDS011;64114;48.726;9.370;2022-10-16T02:02:39;2.17;;;1.30;;
1076;SDS011;64114;48.726;9.370;2022-10-16T02:05:10;2.47;;;1.63;;
1076;SDS011;64114;48.726;9.370;2022-10-16T02:07:45;4.07;;;1.67;;
1076;SDS011;64114;48.726;9.370;2022-10-16T02:10:13;2.63;;;1.50;;
1076;SDS011;64114;48.726;9.370;2022-10-16T02:12:43;1.53;;;1.30;;
1076;SDS011;64114;48.726;9.370;2022-10-16T02:15:15;8.70;;;2.40;;
1076;SDS011;64114;48.726;9.370;2022-10-16T02:17:43;1.63;;;1.57;;
1076;SDS011;64114;48.726;9.370;2022-10-16T02:20:11;1.83;;;1.50;;
1076;SDS011;64114;48.726;9.370;2022-10-16T02:22:40;2.30;;;1.37;;
1076;SDS011;64114;48.726;9.370;2022-10-16T02:25:15;6.20;;;1.70;;
1076;SDS011;64114;48.726;9.370;2022-10-16T02:27:50;4.73;;;1.40;;
1076;SDS011;64114;48.726;9.370;2022-10-16T02:30:24;3.20;;;1.53;;
1076;SDS011;64114;48.726;9.370;2022-10-16T02:32:54;2.40;;;2.27;;
1076;SDS011;64114;48.726;9.370;2022-10-16T02:35:24;8.10;;;1.70;;
1076;SDS011;64114;48.726;9.370;2022-10-16T02:37:53;4.10;;;2.10;;
1076;SDS011;64114;48.726;9.370;2022-10-16T02:40:23;3.03;;;1.63;;
1076;SDS011;64114;48.726;9.370;2022-10-16T02:42:53;1.90;;;1.70;;
1076;SDS011;64114;48.726;9.370;2022-10-16T02:45:22;2.00;;;1.57;;
1076;SDS011;64114;48.726;9.370;2022-10-16T02:47:51;2.10;;;1.57;;
1076;SDS011;64114;48.726;9.370;2022-10-16T02:50:18;3.60;;;1.97;;
1076;SDS011;64114;48.726;9.370;2022-10-16T02:52:46;1.70;;;1.60;;
1076;SDS011;64114;48.726;9.370;2022-10-16T02:55:14;2.40;;;1.77;;
1076;SDS011;64114;48.726;9.370;2022-10-16T02:57:42;1.57;;;1.53;;
1076;SDS011;64114;48.726;9.370;2022-10-16T03:00:12;2.67;;;2.10;;
1076;SDS011;64114;48.726;9.370;2022-10-16T03:02:42;3.40;;;1.83;;
1076;SDS011;64114;48.726;9.370;2022-10-16T03:05:09;2.17;;;1.90;;
1076;SDS011;64114;48.726;9.370;2022-10-16T03:07:38;3.53;;;1.70;;
1076;SDS011;64114;48.726;9.370;2022-10-16T03:10:06;1.40;;;1.40;;
1076;SDS011;64114;48.726;9.370;2022-10-16T03:12:34;7.23;;;2.00;;
1076;SDS011;64114;48.726;9.370;2022-10-16T03:15:02;2.60;;;2.33;;
1076;SDS011;64114;48.726;9.370;2022-10-16T03:17:33;2.20;;;2.00;;
1076;SDS011;64114;48.726;9.370;2022-10-16T03:20:00;2.50;;;1.90;;
1076;SDS011;64114;48.726;9.370;2022-10-16T03:22:29;1.60;;;1.50;;
1076;SDS011;64114;48.726;9.370;2022-10-16T03:24:57;1.87;;;1.80;;
1076;SDS011;64114;48.726;9.370;2022-10-16T03:27:25;2.83;;;2.67;;
1076;SDS011;64114;48.726;9.370;2022-10-16T03:29:54;1.97;;;1.60;;
1076;SDS011;64114;48.726;9.370;2022-10-16T03:32:21;3.57;;;1.90;;
1076;SDS011;64114;48.726;9.370;2022-10-16T03:34:53;2.20;;;1.90;;
1076;SDS011;64114;48.726;9.370;2022-10-16T03:37:22;2.80;;;2.27;;
1076;SDS011;64114;48.726;9.370;2022-10-16T03:39:51;1.97;;;1.67;;
1076;SDS011;64114;48.726;9.370;2022-10-16T03:42:19;3.50;;;1.80;;
1076;SDS011;64114;48.726;9.370;2022-10-16T03:44:47;1.73;;;1.63;;
1076;SDS011;64114;48.726;9.370;2022-10-16T03:47:14;1.73;;;1.63;;
1076;SDS011;64114;48.726;9.370;2022-10-16T03:49:47;2.13;;;1.97;;
1076;SDS011;64114;48.726;9.370;2022-10-16T03:52:16;1.63;;;1.57;;
1076;SDS011;64114;48.726;9.370;2022-10-16T03:54:49;2.23;;;1.60;;
1076;SDS011;64114;48.726;9.370;2022-10-16T03:57:17;3.93;;;2.00;;
1076;SDS011;64114;48.726;9.370;2022-10-16T03:59:44;2.93;;;2.30;;
1076;SDS011;64114;48.726;9.370;2022-10-16T04:02:12;2.73;;;1.90;;
1076;SDS011;64114;48.726;9.370;2022-10-16T04:04:40;3.57;;;2.23;;
1076;SDS011;64114;48.726;9.370;2022-10-16T04:07:08;4.70;;;2.10;;
1076;SDS011;64114;48.726;9.370;2022-10-16T04:09:38;2.73;;;1.80;;
1076;SDS011;64114;48.726;9.370;2022-10-16T04:12:06;2.87;;;2.03;;
1076;SDS011;64114;48.726;9.370;2022-10-16T04:14:34;5.70;;;3.20;;
1076;SDS011;64114;48.726;9.370;2022-10-16T04:17:02;2.87;;;1.60;;
1076;SDS011;64114;48.726;9.370;2022-10-16T04:19:30;6.10;;;1.90;;
1076;SDS011;64114;48.726;9.370;2022-10-16T04:21:57;2.70;;;2.17;;
1076;SDS011;64114;48.726;9.370;2022-10-16T04:24:25;3.47;;;1.80;;
1076;SDS011;64114;48.726;9.370;2022-10-16T04:26:55;3.70;;;2.47;;
1076;SDS011;64114;48.726;9.370;2022-10-16T04:29:22;2.83;;;1.63;;
1076;SDS011;64114;48.726;9.370;2022-10-16T04:31:50;2.77;;;2.00;;
1076;SDS011;64114;48.726;9.370;2022-10-16T04:34:18;4.03;;;2.30;;
1076;SDS011;64114;48.726;9.370;2022-10-16T04:36:46;3.37;;;2.03;;
1076;SDS011;64114;48.726;9.370;2022-10-16T04:39:14;4.27;;;1.80;;
1076;SDS011;64114;48.726;9.370;2022-10-16T04:41:42;2.17;;;1.83;;
1076;SDS011;64114;48.726;9.370;2022-10-16T04:44:11;2.07;;;1.87;;
1076;SDS011;64114;48.726;9.370;2022-10-16T04:46:38;2.30;;;1.50;;
1076;SDS011;64114;48.726;9.370;2022-10-16T04:49:06;1.77;;;1.67;;
1076;SDS011;64114;48.726;9.370;2022-10-16T04:51:34;1.73;;;1.67;;
1076;SDS011;64114;48.726;9.370;2022-10-16T04:54:02;3.20;;;1.43;;
1076;SDS011;64114;48.726;9.370;2022-10-16T04:56:30;2.70;;;2.00;;
1076;SDS011;64114;48.726;9.370;2022-10-16T04:58:58;1.80;;;1.33;;
1076;SDS011;64114;48.726;9.370;2022-10-16T05:01:27;3.93;;;1.77;;
1076;SDS011;64114;48.726;9.370;2022-10-16T05:03:55;1.63;;;1.53;;
1076;SDS011;64114;48.726;9.370;2022-10-16T05:06:23;2.00;;;1.90;;
1076;SDS011;64114;48.726;9.370;2022-10-16T05:08:51;3.10;;;1.90;;
1076;SDS011;64114;48.726;9.370;2022-10-16T05:11:19;3.57;;;2.30;;
1076;SDS011;64114;48.726;9.370;2022-10-16T05:13:47;2.50;;;1.93;;
1076;SDS011;64114;48.726;9.370;2022-10-16T05:16:20;3.33;;;2.00;;
1076;SDS011;64114;48.726;9.370;2022-10-16T05:18:49;2.67;;;1.50;;
1076;SDS011;64114;48.726;9.370;2022-10-16T05:21:29;3.00;;;2.13;;
1076;SDS011;64114;48.726;9.370;2022-10-16T05:23:57;4.70;;;1.83;;
1076;SDS011;64114;48.726;9.370;2022-10-16T05:26:25;2.23;;;2.03;;
1076;SDS011;64114;48.726;9.370;2022-10-16T05:28:53;3.17;;;1.43;;
1076;SDS011;64114;48.726;9.370;2022-10-16T05:31:21;1.67;;;1.63;;
1076;SDS011;64114;48.726;9.370;2022-10-16T05:33:50;2.40;;;1.80;;
1076;SDS011;64114;48.726;9.370;2022-10-16T05:36:18;1.73;;;1.20;;
1076;SDS011;64114;48.726;9.370;2022-10-16T05:38:50;2.77;;;1.80;;
1076;SDS011;64114;48.726;9.370;2022-10-16T05:41:17;3.10;;;1.88;;
1076;SDS011;64114;48.726;9.370;2022-10-16T05:43:47;3.17;;;1.80;;
1076;SDS011;64114;48.726;9.370;2022-10-16T05:46:15;4.57;;;2.30;;
1076;SDS011;64114;48.726;9.370;2022-10-16T05:48:44;2.97;;;1.83;;
1076;SDS011;64114;48.726;9.370;2022-10-16T05:51:14;2.53;;;1.30;;
1076;SDS011;64114;48.726;9.370;2022-10-16T05:53:42;2.73;;;2.00;;
1076;SDS011;64114;48.726;9.370;2022-10-16T05:56:14;3.53;;;1.73;;
1076;SDS011;64114;48.726;9.370;2022-10-16T05:58:42;4.67;;;2.10;;
1076;SDS011;64114;48.726;9.370;2022-10-16T06:01:11;3.90;;;2.37;;
1076;SDS011;64114;48.726;9.370;2022-10-16T06:03:40;3.30;;;2.27;;
1076;SDS011;64114;48.726;9.370;2022-10-16T06:06:09;3.40;;;2.30;;
1076;SDS011;64114;48.726;9.370;2022-10-16T06:08:40;4.33;;;2.47;;
1076;SDS011;64114;48.726;9.370;2022-10-16T06:11:10;3.83;;;2.80;;
1076;SDS011;64114;48.726;9.370;2022-10-16T06:13:39;3.80;;;2.60;;
1076;SDS011;64114;48.726;9.370;2022-10-16T06:16:08;3.23;;;2.83;;
1076;SDS011;64114;48.726;9.370;2022-10-16T06:18:38;2.40;;;2.00;;
1076;SDS011;64114;48.726;9.370;2022-10-16T06:21:09;3.83;;;2.50;;
1076;SDS011;64114;48.726;9.370;2022-10-16T06:23:39;3.03;;;2.30;;
1076;SDS011;64114;48.726;9.370;2022-10-16T06:26:07;4.83;;;2.00;;
1076;SDS011;64114;48.726;9.370;2022-10-16T06:28:36;2.63;;;1.70;;
1076;SDS011;64114;48.726;9.370;2022-10-16T06:31:05;3.40;;;2.00;;
1076;SDS011;64114;48.726;9.370;2022-10-16T06:33:35;5.67;;;2.10;;
1076;SDS011;64114;48.726;9.370;2022-10-16T06:36:03;5.07;;;3.17;;
1076;SDS011;64114;48.726;9.370;2022-10-16T06:38:32;3.50;;;2.20;;
1076;SDS011;64114;48.726;9.370;2022-10-16T06:41:01;2.50;;;2.30;;
1076;SDS011;64114;48.726;9.370;2022-10-16T06:43:29;2.73;;;2.00;;
1076;SDS011;64114;48.726;9.370;2022-10-16T06:45:59;2.23;;;2.03;;
1076;SDS011;64114;48.726;9.370;2022-10-16T06:48:27;2.43;;;2.27;;
1076;SDS011;64114;48.726;9.370;2022-10-16T06:50:56;4.53;;;2.47;;
1076;SDS011;64114;48.726;9.370;2022-10-16T06:53:25;4.80;;;2.73;;
1076;SDS011;64114;48.726;9.370;2022-10-16T06:55:54;6.97;;;2.50;;
1076;SDS011;64114;48.726;9.370;2022-10-16T06:58:24;4.00;;;3.33;;
1076;SDS011;64114;48.726;9.370;2022-10-16T07:00:54;2.30;;;2.17;;
1076;SDS011;64114;48.726;9.370;2022-10-16T07:03:23;4.57;;;3.00;;
1076;SDS011;64114;48.726;9.370;2022-10-16T07:05:51;3.40;;;2.93;;
1076;SDS011;64114;48.726;9.370;2022-10-16T07:08:18;2.97;;;1.83;;
1076;SDS011;64114;48.726;9.370;2022-10-16T07:10:46;2.30;;;2.10;;
1076;SDS011;64114;48.726;9.370;2022-10-16T07:13:14;2.33;;;1.87;;
1076;SDS011;64114;48.726;9.370;2022-10-16T07:15:43;2.77;;;2.30;;
1076;SDS011;64114;48.726;9.370;2022-10-16T07:18:11;3.30;;;2.13;;
1076;SDS011;64114;48.726;9.370;2022-10-16T07:20:39;5.47;;;2.70;;
1076;SDS011;64114;48.726;9.370;2022-10-16T07:23:07;2.10;;;1.97;;
1076;SDS011;64114;48.726;9.370;2022-10-16T07:25:34;3.27;;;2.33;;
1076;SDS011;64114;48.726;9.370;2022-10-16T07:28:03;3.27;;;2.20;;
1076;SDS011;64114;48.726;9.370;2022-10-16T07:30:31;2.43;;;2.23;;
1076;SDS011;64114;48.726;9.370;2022-10-16T07:33:04;4.20;;;2.07;;
1076;SDS011;64114;48.726;9.370;2022-10-16T07:35:31;2.07;;;1.97;;
1076;SDS011;64114;48.726;9.370;2022-10-16T07:37:59;5.73;;;2.20;;
1076;SDS011;64114;48.726;9.370;2022-10-16T07:40:27;4.93;;;2.17;;
1076;SDS011;64114;48.726;9.370;2022-10-16T07:42:55;3.73;;;2.73;;
1076;SDS011;64114;48.726;9.370;2022-10-16T07:45:23;4.13;;;2.10;;
1076;SDS011;64114;48.726;9.370;2022-10-16T07:47:51;3.43;;;2.37;;
1076;SDS011;64114;48.726;9.370;2022-10-16T07:50:20;3.70;;;3.00;;
1076;SDS011;64114;48.726;9.370;2022-10-16T07:52:48;6.80;;;2.80;;
1076;SDS011;64114;48.726;9.370;2022-10-16T07:55:15;4.80;;;3.23;;
1076;SDS011;64114;48.726;9.370;2022-10-16T07:57:43;4.60;;;3.13;;
1076;SDS011;64114;48.726;9.370;2022-10-16T08:00:11;6.80;;;3.53;;
1076;SDS011;64114;48.726;9.370;2022-10-16T08:02:40;4.13;;;3.33;;
1076;SDS011;64114;48.726;9.370;2022-10-16T08:05:08;2.87;;;2.67;;
1076;SDS011;64114;48.726;9.370;2022-10-16T08:07:38;5.77;;;2.70;;
1076;SDS011;64114;48.726;9.370;2022-10-16T08:10:06;3.27;;;2.40;;
1076;SDS011;64114;48.726;9.370;2022-10-16T08:12:35;4.33;;;2.67;;
1076;SDS011;64114;48.726;9.370;2022-10-16T08:15:04;8.37;;;3.83;;
1076;SDS011;64114;48.726;9.370;2022-10-16T08:17:33;5.67;;;4.20;;
1076;SDS011;64114;48.726;9.370;2022-10-16T08:20:00;9.23;;;3.47;;
1076;SDS011;64114;48.726;9.370;2022-10-16T08:22:28;3.83;;;2.67;;
1076;SDS011;64114;48.726;9.370;2022-10-16T08:24:58;5.50;;;2.80;;
1076;SDS011;64114;48.726;9.370;2022-10-16T08:27:30;4.00;;;3.20;;
1076;SDS011;64114;48.726;9.370;2022-10-16T08:29:58;6.00;;;2.60;;
1076;SDS011;64114;48.726;9.370;2022-10-16T08:32:26;2.40;;;2.20;;
1076;SDS011;64114;48.726;9.370;2022-10-16T08:34:55;2.63;;;2.50;;
1076;SDS011;64114;48.726;9.370;2022-10-16T08:37:24;3.70;;;2.73;;
1076;SDS011;64114;48.726;9.370;2022-10-16T08:39:53;4.10;;;2.17;;
1076;SDS011;64114;48.726;9.370;2022-10-16T08:42:27;3.57;;;2.50;;
1076;SDS011;64114;48.726;9.370;2022-10-16T08:45:15;6.03;;;2.97;;
1076;SDS011;64114;48.726;9.370;2022-10-16T08:47:55;3.70;;;2.17;;
1076;SDS011;64114;48.726;9.370;2022-10-16T08:50:33;4.20;;;2.90;;
1076;SDS011;64114;48.726;9.370;2022-10-16T08:53:09;5.40;;;2.30;;
1076;SDS011;64114;48.726;9.370;2022-10-16T08:55:43;6.47;;;3.03;;
1076;SDS011;64114;48.726;9.370;2022-10-16T08:58:16;7.27;;;3.73;;
1076;SDS011;64114;48.726;9.370;2022-10-16T09:00:46;5.93;;;2.77;;
1076;SDS011;64114;48.726;9.370;2022-10-16T09:03:24;3.47;;;3.17;;
1076;SDS011;64114;48.726;9.370;2022-10-16T09:06:09;4.40;;;3.20;;
1076;SDS011;64114;48.726;9.370;2022-10-16T09:08:51;3.97;;;3.50;;
1076;SDS011;64114;48.726;9.370;2022-10-16T09:11:33;3.00;;;2.53;;
1076;SDS011;64114;48.726;9.370;2022-10-16T09:14:18;6.40;;;2.67;;
1076;SDS011;64114;48.726;9.370;2022-10-16T09:17:06;6.33;;;3.40;;
1076;SDS011;64114;48.726;9.370;2022-10-16T09:19:50;7.70;;;2.57;;
1076;SDS011;64114;48.726;9.370;2022-10-16T09:22:21;4.97;;;3.23;;
1076;SDS011;64114;48.726;9.370;2022-10-16T09:24:55;3.40;;;3.00;;
1076;SDS011;64114;48.726;9.370;2022-10-16T09:27:28;6.20;;;3.50;;
1076;SDS011;64114;48.726;9.370;2022-10-16T09:29:58;3.97;;;2.87;;
1076;SDS011;64114;48.726;9.370;2022-10-16T09:32:25;2.33;;;2.13;;
1076;SDS011;64114;48.726;9.370;2022-10-16T09:34:55;2.73;;;2.53;;
1076;SDS011;64114;48.726;9.370;2022-10-16T09:37:24;3.43;;;2.60;;
1076;SDS011;64114;48.726;9.370;2022-10-16T09:39:54;2.77;;;2.37;;
1076;SDS011;64114;48.726;9.370;2022-10-16T09:42:22;6.90;;;2.93;;
1076;SDS011;64114;48.726;9.370;2022-10-16T09:44:55;4.20;;;1.73;;
1076;SDS011;64114;48.726;9.370;2022-10-16T09:47:25;5.63;;;3.20;;
1076;SDS011;64114;48.726;9.370;2022-10-16T09:49:56;2.90;;;1.70;;
1076;SDS011;64114;48.726;9.370;2022-10-16T09:52:28;3.13;;;2.57;;
1076;SDS011;64114;48.726;9.370;2022-10-16T09:54:57;1.93;;;1.87;;
1076;SDS011;64114;48.726;9.370;2022-10-16T09:57:26;2.33;;;2.13;;
1076;SDS011;64114;48.726;9.370;2022-10-16T09:59:55;2.87;;;1.73;;
1076;SDS011;64114;48.726;9.370;2022-10-16T10:02:28;3.10;;;1.63;;
1076;SDS011;64114;48.726;9.370;2022-10-16T10:04:58;2.40;;;1.60;;
1076;SDS011;64114;48.726;9.370;2022-10-16T10:07:27;3.00;;;2.10;;
1076;SDS011;64114;48.726;9.370;2022-10-16T10:09:59;3.80;;;1.40;;
1076;SDS011;64114;48.726;9.370;2022-10-16T10:12:30;1.67;;;1.53;;
1076;SDS011;64114;48.726;9.370;2022-10-16T10:15:05;4.60;;;1.57;;
1076;SDS011;64114;48.726;9.370;2022-10-16T10:17:44;2.60;;;1.90;;
1076;SDS011;64114;48.726;9.370;2022-10-16T10:20:16;1.67;;;1.63;;
1076;SDS011;64114;48.726;9.370;2022-10-16T10:22:50;2.07;;;1.97;;
1076;SDS011;64114;48.726;9.370;2022-10-16T10:25:24;2.80;;;1.70;;
1076;SDS011;64114;48.726;9.370;2022-10-16T10:28:09;2.20;;;1.40;;
1076;SDS011;64114;48.726;9.370;2022-10-16T10:30:52;2.63;;;1.60;;
1076;SDS011;64114;48.726;9.370;2022-10-16T10:33:27;1.80;;;1.70;;
1076;SDS011;64114;48.726;9.370;2022-10-16T10:36:03;2.20;;;1.63;;
1076;SDS011;64114;48.726;9.370;2022-10-16T10:38:41;2.63;;;1.37;;
1076;SDS011;64114;48.726;9.370;2022-10-16T10:41:19;2.13;;;1.73;;
1076;SDS011;64114;48.726;9.370;2022-10-16T10:44:01;1.87;;;1.20;;
1076;SDS011;64114;48.726;9.370;2022-10-16T10:46:38;5.13;;;1.80;;
1076;SDS011;64114;48.726;9.370;2022-10-16T10:49:24;4.10;;;2.30;;
1076;SDS011;64114;48.726;9.370;2022-10-16T10:52:07;1.77;;;1.57;;
1076;SDS011;64114;48.726;9.370;2022-10-16T10:54:52;1.70;;;1.60;;
1076;SDS011;64114;48.726;9.370;2022-10-16T10:57:28;2.00;;;1.90;;
1076;SDS011;64114;48.726;9.370;2022-10-16T11:00:12;2.60;;;1.70;;
1076;SDS011;64114;48.726;9.370;2022-10-16T11:02:48;2.00;;;1.77;;
1076;SDS011;64114;48.726;9.370;2022-10-16T11:05:26;1.67;;;1.60;;
1076;SDS011;64114;48.726;9.370;2022-10-16T11:07:57;1.47;;;1.43;;
1076;SDS011;64114;48.726;9.370;2022-10-16T11:10:28;3.70;;;1.80;;
1076;SDS011;64114;48.726;9.370;2022-10-16T11:13:04;2.07;;;1.30;;
1076;SDS011;64114;48.726;9.370;2022-10-16T11:15:43;2.13;;;2.00;;
1076;SDS011;64114;48.726;9.370;2022-10-16T11:18:22;1.60;;;1.50;;
1076;SDS011;64114;48.726;9.370;2022-10-16T11:20:57;1.90;;;1.50;;
1076;SDS011;64114;48.726;9.370;2022-10-16T11:23:30;1.30;;;1.20;;
1076;SDS011;64114;48.726;9.370;2022-10-16T11:26:04;2.13;;;1.30;;
1076;SDS011;64114;48.726;9.370;2022-10-16T11:28:38;3.43;;;1.80;;
1076;SDS011;64114;48.726;9.370;2022-10-16T11:31:13;2.20;;;2.00;;
1076;SDS011;64114;48.726;9.370;2022-10-16T11:33:49;1.50;;;1.40;;
1076;SDS011;64114;48.726;9.370;2022-10-16T11:36:21;3.40;;;2.27;;
1076;SDS011;64114;48.726;9.370;2022-10-16T11:38:55;1.43;;;1.43;;
1076;SDS011;64114;48.726;9.370;2022-10-16T11:41:32;2.70;;;1.70;;
1076;SDS011;64114;48.726;9.370;2022-10-16T11:44:09;1.63;;;1.57;;
1076;SDS011;64114;48.726;9.370;2022-10-16T11:46:48;2.23;;;1.27;;
1076;SDS011;64114;48.726;9.370;2022-10-16T11:49:41;1.40;;;1.30;;
1076;SDS011;64114;48.726;9.370;2022-10-16T11:52:14;1.90;;;0.90;;
1076;SDS011;64114;48.726;9.370;2022-10-16T11:54:49;1.83;;;1.50;;
1076;SDS011;64114;48.726;9.370;2022-10-16T11:57:22;1.17;;;1.13;;
1076;SDS011;64114;48.726;9.370;2022-10-16T11:59:55;2.20;;;1.27;;
1076;SDS011;64114;48.726;9.370;2022-10-16T12:02:40;1.93;;;1.67;;
1076;SDS011;64114;48.726;9.370;2022-10-16T12:05:24;1.63;;;1.03;;
1076;SDS011;64114;48.726;9.370;2022-10-16T12:08:05;1.07;;;0.97;;
1076;SDS011;64114;48.726;9.370;2022-10-16T12:10:38;1.80;;;1.50;;
1076;SDS011;64114;48.726;9.370;2022-10-16T12:16:04;1.97;;;1.80;;
1076;SDS011;64114;48.726;9.370;2022-10-16T12:18:33;1.93;;;1.80;;
1076;SDS011;64114;48.726;9.370;2022-10-16T12:21:02;1.40;;;1.33;;
1076;SDS011;64114;48.726;9.370;2022-10-16T12:23:33;1.00;;;0.90;;
1076;SDS011;64114;48.726;9.370;2022-10-16T12:26:05;1.27;;;1.20;;
1076;SDS011;64114;48.726;9.370;2022-10-16T12:28:33;1.23;;;1.13;;
1076;SDS011;64114;48.726;9.370;2022-10-16T12:31:02;1.33;;;1.23;;
1076;SDS011;64114;48.726;9.370;2022-10-16T12:33:33;4.63;;;1.50;;
1076;SDS011;64114;48.726;9.370;2022-10-16T12:36:05;3.43;;;2.50;;
1076;SDS011;64114;48.726;9.370;2022-10-16T12:38:45;1.47;;;1.30;;
1076;SDS011;64114;48.726;9.370;2022-10-16T12:41:23;2.13;;;1.53;;
1076;SDS011;64114;48.726;9.370;2022-10-16T12:43:52;1.80;;;1.80;;
1076;SDS011;64114;48.726;9.370;2022-10-16T12:46:22;2.50;;;1.60;;
1076;SDS011;64114;48.726;9.370;2022-10-16T12:49:06;2.00;;;1.50;;
1076;SDS011;64114;48.726;9.370;2022-10-16T12:51:49;1.23;;;1.03;;
1076;SDS011;64114;48.726;9.370;2022-10-16T12:54:17;1.20;;;1.20;;
1076;SDS011;64114;48.726;9.370;2022-10-16T12:56:50;1.57;;;1.50;;
1076;SDS011;64114;48.726;9.370;2022-10-16T12:59:48;1.93;;;1.67;;
1076;SDS011;64114;48.726;9.370;2022-10-16T13:02:29;2.33;;;1.40;;
1076;SDS011;64114;48.726;9.370;2022-10-16T13:05:15;2.10;;;1.30;;
1076;SDS011;64114;48.726;9.370;2022-10-16T13:07:55;2.00;;;1.90;;
1076;SDS011;64114;48.726;9.370;2022-10-16T13:10:33;4.37;;;2.53;;
1076;SDS011;64114;48.726;9.370;2022-10-16T13:13:12;2.20;;;2.00;;
1076;SDS011;64114;48.726;9.370;2022-10-16T13:15:54;1.50;;;1.30;;
1076;SDS011;64114;48.726;9.370;2022-10-16T13:18:34;1.90;;;1.40;;
1076;SDS011;64114;48.726;9.370;2022-10-16T13:21:16;1.50;;;1.33;;
1076;SDS011;64114;48.726;9.370;2022-10-16T13:23:55;2.70;;;1.40;;
1076;SDS011;64114;48.726;9.370;2022-10-16T13:26:31;2.13;;;1.43;;
1076;SDS011;64114;48.726;9.370;2022-10-16T13:29:09;2.27;;;2.07;;
1076;SDS011;64114;48.726;9.370;2022-10-16T13:31:37;1.50;;;1.30;;
1076;SDS011;64114;48.726;9.370;2022-10-16T13:34:09;2.20;;;2.00;;
1076;SDS011;64114;48.726;9.370;2022-10-16T13:36:43;1.53;;;1.43;;
1076;SDS011;64114;48.726;9.370;2022-10-16T13:39:14;1.47;;;1.20;;
1076;SDS011;64114;48.726;9.370;2022-10-16T13:41:57;2.57;;;1.40;;
1076;SDS011;64114;48.726;9.370;2022-10-16T13:44:36;1.83;;;1.13;;
1076;SDS011;64114;48.726;9.370;2022-10-16T13:47:12;4.40;;;2.03;;
1076;SDS011;64114;48.726;9.370;2022-10-16T13:49:44;2.90;;;2.70;;
1076;SDS011;64114;48.726;9.370;2022-10-16T13:52:16;3.37;;;1.60;;
1076;SDS011;64114;48.726;9.370;2022-10-16T13:54:48;2.37;;;1.83;;
1076;SDS011;64114;48.726;9.370;2022-10-16T13:57:15;3.00;;;2.20;;
1076;SDS011;64114;48.726;9.370;2022-10-16T13:59:59;4.17;;;3.40;;
1076;SDS011;64114;48.726;9.370;2022-10-16T14:02:30;2.20;;;2.00;;
1076;SDS011;64114;48.726;9.370;2022-10-16T14:05:02;2.30;;;2.10;;
1076;SDS011;64114;48.726;9.370;2022-10-16T14:07:32;4.30;;;1.90;;
1076;SDS011;64114;48.726;9.370;2022-10-16T14:10:04;2.07;;;1.93;;
1076;SDS011;64114;48.726;9.370;2022-10-16T14:12:34;5.07;;;3.73;;
1076;SDS011;64114;48.726;9.370;2022-10-16T14:15:03;3.97;;;2.33;;
1076;SDS011;64114;48.726;9.370;2022-10-16T14:17:33;3.20;;;2.30;;
1076;SDS011;64114;48.726;9.370;2022-10-16T14:20:04;1.23;;;1.17;;
1076;SDS011;64114;48.726;9.370;2022-10-16T14:22:34;1.87;;;1.73;;
1076;SDS011;64114;48.726;9.370;2022-10-16T14:25:16;3.90;;;3.37;;
1076;SDS011;64114;48.726;9.370;2022-10-16T14:27:59;4.23;;;3.50;;
1076;SDS011;64114;48.726;9.370;2022-10-16T14:30:29;1.73;;;1.70;;
1076;SDS011;64114;48.726;9.370;2022-10-16T14:33:00;1.60;;;1.60;;
1076;SDS011;64114;48.726;9.370;2022-10-16T14:35:30;3.50;;;2.67;;
1076;SDS011;64114;48.726;9.370;2022-10-16T14:38:00;3.10;;;2.63;;
1076;SDS011;64114;48.726;9.370;2022-10-16T14:40:31;3.40;;;2.40;;
1076;SDS011;64114;48.726;9.370;2022-10-16T14:43:01;1.90;;;1.70;;
1076;SDS011;64114;48.726;9.370;2022-10-16T14:45:32;2.97;;;2.67;;
1076;SDS011;64114;48.726;9.370;2022-10-16T14:48:02;6.00;;;2.67;;
1076;SDS011;64114;48.726;9.370;2022-10-16T14:50:34;3.03;;;2.60;;
1076;SDS011;64114;48.726;9.370;2022-10-16T14:53:04;3.30;;;2.73;;
1076;SDS011;64114;48.726;9.370;2022-10-16T14:55:40;2.30;;;1.90;;
1076;SDS011;64114;48.726;9.370;2022-10-16T14:58:09;1.93;;;1.77;;
1076;SDS011;64114;48.726;9.370;2022-10-16T15:00:42;1.80;;;1.70;;
1076;SDS011;64114;48.726;9.370;2022-10-16T15:03:10;2.67;;;1.83;;
1076;SDS011;64114;48.726;9.370;2022-10-16T15:05:38;2.60;;;2.23;;
1076;SDS011;64114;48.726;9.370;2022-10-16T15:08:07;4.10;;;3.07;;
1076;SDS011;64114;48.726;9.370;2022-10-16T15:10:36;3.90;;;2.93;;
1076;SDS011;64114;48.726;9.370;2022-10-16T15:13:10;3.60;;;3.17;;
1076;SDS011;64114;48.726;9.370;2022-10-16T15:15:41;7.00;;;3.87;;
1076;SDS011;64114;48.726;9.370;2022-10-16T15:18:10;3.33;;;3.13;;
1076;SDS011;64114;48.726;9.370;2022-10-16T15:20:41;9.50;;;3.70;;
1076;SDS011;64114;48.726;9.370;2022-10-16T15:23:13;5.97;;;4.17;;
1076;SDS011;64114;48.726;9.370;2022-10-16T15:25:43;4.83;;;3.57;;
1076;SDS011;64114;48.726;9.370;2022-10-16T15:28:14;4.40;;;3.20;;
1076;SDS011;64114;48.726;9.370;2022-10-16T15:30:43;4.13;;;3.70;;